Terminal Aerodrome Forecast
Issued by NWS Sterling, VA

Current Version | Previous Version | Graphics & Text | Print | Product List | Glossary On
Versions: 1 2 3 4 5 6 7 8 9 10 11 12 13 14 15 16 17 18 19 20 21 22
560
FTUS41 KLWX 231726
TAFDCA
TAF
KDCA 231726Z 2318/2418 VRB03KT P6SM FEW200 FEW250
     FM241000 01007KT P6SM FEW100 SCT250
     FM241300 02008KT P6SM SCT090 BKN110=

USA.gov is the U.S. government's official web portal to all federal, state and local government web resources and services.